sensor_id;sensor_type;location;lat;lon;timestamp;pressure;altitude;pressure_sealevel;temperature;humidity
79453;BME280;68899;52.116;5.404;2023-12-20T00:01:03;101607.16;;;6.18;89.51
79453;BME280;68899;52.116;5.404;2023-12-20T00:03:30;101606.34;;;6.16;89.56
79453;BME280;68899;52.116;5.404;2023-12-20T00:06:08;101605.47;;;6.16;89.84
79453;BME280;68899;52.116;5.404;2023-12-20T00:08:34;101598.47;;;6.18;89.48
79453;BME280;68899;52.116;5.404;2023-12-20T00:11:01;101597.63;;;6.16;89.39
79453;BME280;68899;52.116;5.404;2023-12-20T00:13:27;101588.19;;;6.12;89.32
79453;BME280;68899;52.116;5.404;2023-12-20T00:15:54;101589.19;;;6.08;89.27
79453;BME280;68899;52.116;5.404;2023-12-20T00:18:20;101587.53;;;6.05;89.09
79453;BME280;68899;52.116;5.404;2023-12-20T00:20:47;101588.38;;;6.06;89.23
79453;BME280;68899;52.116;5.404;2023-12-20T00:23:13;101587.63;;;6.02;88.93
79453;BME280;68899;52.116;5.404;2023-12-20T00:25:40;101586.78;;;6.02;89.05
79453;BME280;68899;52.116;5.404;2023-12-20T00:28:07;101580.72;;;6.01;88.32
79453;BME280;68899;52.116;5.404;2023-12-20T00:30:33;101580.75;;;6.00;87.97
79453;BME280;68899;52.116;5.404;2023-12-20T00:33:00;101584.34;;;5.95;87.88
79453;BME280;68899;52.116;5.404;2023-12-20T00:35:27;101594.91;;;5.92;88.50
79453;BME280;68899;52.116;5.404;2023-12-20T00:37:53;101603.59;;;5.93;88.35
79453;BME280;68899;52.116;5.404;2023-12-20T00:40:20;101601.91;;;5.90;87.98
79453;BME280;68899;52.116;5.404;2023-12-20T00:42:47;101590.72;;;5.85;87.98
79453;BME280;68899;52.116;5.404;2023-12-20T00:45:14;101597.75;;;5.83;88.42
79453;BME280;68899;52.116;5.404;2023-12-20T00:47:41;101589.94;;;5.83;88.25
79453;BME280;68899;52.116;5.404;2023-12-20T00:50:08;101591.69;;;5.83;88.63
79453;BME280;68899;52.116;5.404;2023-12-20T00:52:36;101591.69;;;5.83;88.34
79453;BME280;68899;52.116;5.404;2023-12-20T00:55:03;101586.47;;;5.81;88.14
79453;BME280;68899;52.116;5.404;2023-12-20T00:57:30;101586.59;;;5.78;88.02
79453;BME280;68899;52.116;5.404;2023-12-20T00:59:58;101598.78;;;5.78;87.90
79453;BME280;68899;52.116;5.404;2023-12-20T01:02:24;101597.13;;;5.75;88.26
79453;BME280;68899;52.116;5.404;2023-12-20T01:04:54;101590.22;;;5.73;88.06
79453;BME280;68899;52.116;5.404;2023-12-20T01:07:20;101588.56;;;5.70;88.08
79453;BME280;68899;52.116;5.404;2023-12-20T01:09:47;101577.25;;;5.70;88.40
79453;BME280;68899;52.116;5.404;2023-12-20T01:12:14;101584.25;;;5.69;88.59
79453;BME280;68899;52.116;5.404;2023-12-20T01:14:41;101576.41;;;5.69;87.90
79453;BME280;68899;52.116;5.404;2023-12-20T01:17:07;101577.38;;;5.66;88.06
79453;BME280;68899;52.116;5.404;2023-12-20T01:19:34;101576.53;;;5.64;87.84
79453;BME280;68899;52.116;5.404;2023-12-20T01:22:00;101571.38;;;5.63;88.19
79453;BME280;68899;52.116;5.404;2023-12-20T01:24:27;101579.19;;;5.63;88.14
79453;BME280;68899;52.116;5.404;2023-12-20T01:26:53;101582.75;;;5.60;88.12
79453;BME280;68899;52.116;5.404;2023-12-20T01:29:20;101590.63;;;5.59;88.35
79453;BME280;68899;52.116;5.404;2023-12-20T01:31:47;101593.31;;;5.57;87.91
79453;BME280;68899;52.116;5.404;2023-12-20T01:34:13;101598.59;;;5.54;88.26
79453;BME280;68899;52.116;5.404;2023-12-20T01:36:40;101594.22;;;5.55;88.61
79453;BME280;68899;52.116;5.404;2023-12-20T01:39:07;101598.53;;;5.56;88.10
79453;BME280;68899;52.116;5.404;2023-12-20T01:41:50;101592.47;;;5.55;88.80
79453;BME280;68899;52.116;5.404;2023-12-20T01:44:17;101593.31;;;5.56;88.44
79453;BME280;68899;52.116;5.404;2023-12-20T01:46:43;101586.44;;;5.53;88.58
79453;BME280;68899;52.116;5.404;2023-12-20T01:49:10;101586.38;;;5.55;89.03
79453;BME280;68899;52.116;5.404;2023-12-20T01:51:38;101577.72;;;5.54;88.60
79453;BME280;68899;52.116;5.404;2023-12-20T01:54:05;101582.88;;;5.56;88.31
79453;BME280;68899;52.116;5.404;2023-12-20T01:56:33;101579.41;;;5.57;88.86
79453;BME280;68899;52.116;5.404;2023-12-20T01:59:01;101579.34;;;5.58;88.92
79453;BME280;68899;52.116;5.404;2023-12-20T02:01:28;101591.50;;;5.59;89.21
79453;BME280;68899;52.116;5.404;2023-12-20T02:03:55;101576.69;;;5.60;88.83
79453;BME280;68899;52.116;5.404;2023-12-20T02:06:24;101583.66;;;5.59;89.05
79453;BME280;68899;52.116;5.404;2023-12-20T02:08:53;101581.94;;;5.58;89.11
79453;BME280;68899;52.116;5.404;2023-12-20T02:11:22;101585.38;;;5.60;88.71
79453;BME280;68899;52.116;5.404;2023-12-20T02:13:48;101579.34;;;5.58;89.05
79453;BME280;68899;52.116;5.404;2023-12-20T02:16:15;101579.41;;;5.57;89.07
79453;BME280;68899;52.116;5.404;2023-12-20T02:18:43;101572.41;;;5.57;89.10
79453;BME280;68899;52.116;5.404;2023-12-20T02:21:10;101576.69;;;5.60;89.12
79453;BME280;68899;52.116;5.404;2023-12-20T02:23:37;101570.56;;;5.61;89.42
79453;BME280;68899;52.116;5.404;2023-12-20T02:26:04;101573.13;;;5.62;88.94
79453;BME280;68899;52.116;5.404;2023-12-20T02:28:31;101573.13;;;5.62;89.67
79453;BME280;68899;52.116;5.404;2023-12-20T02:30:58;101573.91;;;5.66;89.20
79453;BME280;68899;52.116;5.404;2023-12-20T02:33:25;101573.91;;;5.66;89.54
79453;BME280;68899;52.116;5.404;2023-12-20T02:35:51;101566.03;;;5.67;89.66
79453;BME280;68899;52.116;5.404;2023-12-20T02:38:19;101566.88;;;5.68;89.38
79453;BME280;68899;52.116;5.404;2023-12-20T02:40:45;101573.84;;;5.67;89.51
79453;BME280;68899;52.116;5.404;2023-12-20T02:43:15;101565.13;;;5.68;89.78
79453;BME280;68899;52.116;5.404;2023-12-20T02:45:42;101565.06;;;5.70;89.74
79453;BME280;68899;52.116;5.404;2023-12-20T02:48:08;101560.69;;;5.71;89.64
79453;BME280;68899;52.116;5.404;2023-12-20T02:50:35;101562.41;;;5.72;90.04
79453;BME280;68899;52.116;5.404;2023-12-20T02:53:02;101554.63;;;5.70;89.70
79453;BME280;68899;52.116;5.404;2023-12-20T02:55:28;101546.84;;;5.68;89.63
79453;BME280;68899;52.116;5.404;2023-12-20T02:57:55;101553.81;;;5.68;89.63
79453;BME280;68899;52.116;5.404;2023-12-20T03:00:22;101544.22;;;5.68;90.20
79453;BME280;68899;52.116;5.404;2023-12-20T03:02:51;101538.09;;;5.70;89.79
79453;BME280;68899;52.116;5.404;2023-12-20T03:05:18;101534.66;;;5.69;89.93
79453;BME280;68899;52.116;5.404;2023-12-20T03:07:44;101539.00;;;5.68;90.12
79453;BME280;68899;52.116;5.404;2023-12-20T03:10:12;101539.88;;;5.69;89.81
79453;BME280;68899;52.116;5.404;2023-12-20T03:12:49;101540.78;;;5.68;89.89
79453;BME280;68899;52.116;5.404;2023-12-20T03:15:16;101536.34;;;5.70;89.74
79453;BME280;68899;52.116;5.404;2023-12-20T03:17:42;101538.00;;;5.73;89.91
79453;BME280;68899;52.116;5.404;2023-12-20T03:20:09;101547.59;;;5.72;89.96
79453;BME280;68899;52.116;5.404;2023-12-20T03:22:36;101538.00;;;5.73;90.03
79453;BME280;68899;52.116;5.404;2023-12-20T03:25:06;101527.63;;;5.71;90.32
79453;BME280;68899;52.116;5.404;2023-12-20T03:27:32;101524.94;;;5.73;90.22
79453;BME280;68899;52.116;5.404;2023-12-20T03:29:59;101519.72;;;5.74;89.80
79453;BME280;68899;52.116;5.404;2023-12-20T03:32:25;101517.97;;;5.73;90.23
79453;BME280;68899;52.116;5.404;2023-12-20T03:34:52;101531.97;;;5.71;90.77
79453;BME280;68899;52.116;5.404;2023-12-20T03:37:19;101529.47;;;5.67;90.46
79453;BME280;68899;52.116;5.404;2023-12-20T03:39:45;101518.13;;;5.68;90.42
79453;BME280;68899;52.116;5.404;2023-12-20T03:42:12;101527.63;;;5.71;90.53
79453;BME280;68899;52.116;5.404;2023-12-20T03:44:39;101522.41;;;5.71;90.47
79453;BME280;68899;52.116;5.404;2023-12-20T03:47:08;101521.50;;;5.72;90.11
79453;BME280;68899;52.116;5.404;2023-12-20T03:49:35;101530.16;;;5.74;90.54
79453;BME280;68899;52.116;5.404;2023-12-20T03:52:07;101535.31;;;5.76;90.62
79453;BME280;68899;52.116;5.404;2023-12-20T03:54:35;101527.53;;;5.74;90.59
79453;BME280;68899;52.116;5.404;2023-12-20T03:57:02;101523.25;;;5.72;90.43
79453;BME280;68899;52.116;5.404;2023-12-20T03:59:28;101529.31;;;5.72;90.20
79453;BME280;68899;52.116;5.404;2023-12-20T04:01:55;101518.94;;;5.71;90.40
79453;BME280;68899;52.116;5.404;2023-12-20T04:04:22;101515.41;;;5.72;90.15
79453;BME280;68899;52.116;5.404;2023-12-20T04:06:48;101522.34;;;5.73;90.36
79453;BME280;68899;52.116;5.404;2023-12-20T04:09:15;101524.03;;;5.75;90.48
79453;BME280;68899;52.116;5.404;2023-12-20T04:11:41;101517.00;;;5.77;90.18
79453;BME280;68899;52.116;5.404;2023-12-20T04:14:08;101529.09;;;5.80;90.07
79453;BME280;68899;52.116;5.404;2023-12-20T04:16:35;101517.72;;;5.82;89.68
79453;BME280;68899;52.116;5.404;2023-12-20T04:19:01;101513.28;;;5.84;89.96
79453;BME280;68899;52.116;5.404;2023-12-20T04:21:29;101502.00;;;5.84;89.80
79453;BME280;68899;52.116;5.404;2023-12-20T04:23:55;101504.59;;;5.84;90.34
79453;BME280;68899;52.116;5.404;2023-12-20T04:26:22;101519.31;;;5.86;89.69
79453;BME280;68899;52.116;5.404;2023-12-20T04:28:48;101508.81;;;5.88;89.86
79453;BME280;68899;52.116;5.404;2023-12-20T04:31:18;101510.53;;;5.89;89.92
79453;BME280;68899;52.116;5.404;2023-12-20T04:33:44;101513.13;;;5.89;89.64
79453;BME280;68899;52.116;5.404;2023-12-20T04:36:11;101517.47;;;5.91;89.69
79453;BME280;68899;52.116;5.404;2023-12-20T04:38:38;101522.63;;;5.93;90.02
79453;BME280;68899;52.116;5.404;2023-12-20T04:41:04;101524.28;;;5.95;89.70
79453;BME280;68899;52.116;5.404;2023-12-20T04:43:31;101517.25;;;5.98;89.78
79453;BME280;68899;52.116;5.404;2023-12-20T04:45:57;101510.25;;;5.98;89.50
79453;BME280;68899;52.116;5.404;2023-12-20T04:48:24;101516.31;;;6.00;89.72
79453;BME280;68899;52.116;5.404;2023-12-20T04:50:50;101503.22;;;6.02;89.71
79453;BME280;68899;52.116;5.404;2023-12-20T04:53:17;101503.16;;;6.03;89.42
79453;BME280;68899;52.116;5.404;2023-12-20T04:55:43;101501.41;;;6.04;90.00
79453;BME280;68899;52.116;5.404;2023-12-20T04:58:10;101505.66;;;6.06;89.52
79453;BME280;68899;52.116;5.404;2023-12-20T05:00:36;101501.25;;;6.08;88.90
79453;BME280;68899;52.116;5.404;2023-12-20T05:03:03;101496.88;;;6.09;89.36
79453;BME280;68899;52.116;5.404;2023-12-20T05:05:30;101485.53;;;6.10;89.37
79453;BME280;68899;52.116;5.404;2023-12-20T05:07:56;101489.00;;;6.10;89.22
79453;BME280;68899;52.116;5.404;2023-12-20T05:10:23;101495.91;;;6.11;89.14
79453;BME280;68899;52.116;5.404;2023-12-20T05:12:50;101497.56;;;6.14;89.21
79453;BME280;68899;52.116;5.404;2023-12-20T05:15:17;101500.13;;;6.15;89.57
79453;BME280;68899;52.116;5.404;2023-12-20T05:17:44;101499.28;;;6.15;89.49
79453;BME280;68899;52.116;5.404;2023-12-20T05:20:11;101496.59;;;6.16;89.25
79453;BME280;68899;52.116;5.404;2023-12-20T05:22:37;101498.34;;;6.17;89.51
79453;BME280;68899;52.116;5.404;2023-12-20T05:25:05;101502.72;;;6.17;89.21
79453;BME280;68899;52.116;5.404;2023-12-20T05:27:31;101503.50;;;6.19;89.30
79453;BME280;68899;52.116;5.404;2023-12-20T05:29:58;101506.97;;;6.19;89.19
79453;BME280;68899;52.116;5.404;2023-12-20T05:32:25;101499.16;;;6.19;88.90
79453;BME280;68899;52.116;5.404;2023-12-20T05:34:51;101498.28;;;6.19;88.61
79453;BME280;68899;52.116;5.404;2023-12-20T05:37:18;101503.47;;;6.20;89.60
79453;BME280;68899;52.116;5.404;2023-12-20T05:39:45;101507.78;;;6.21;88.74
79453;BME280;68899;52.116;5.404;2023-12-20T05:42:11;101501.69;;;6.21;89.29
79453;BME280;68899;52.116;5.404;2023-12-20T05:44:38;101507.78;;;6.21;88.56
79453;BME280;68899;52.116;5.404;2023-12-20T05:47:04;101506.06;;;6.20;89.13
79453;BME280;68899;52.116;5.404;2023-12-20T05:49:31;101499.94;;;6.21;88.67
79453;BME280;68899;52.116;5.404;2023-12-20T05:51:58;101495.50;;;6.23;88.15
79453;BME280;68899;52.116;5.404;2023-12-20T05:54:24;101499.03;;;6.22;88.47
79453;BME280;68899;52.116;5.404;2023-12-20T05:56:51;101503.41;;;6.22;88.56
79453;BME280;68899;52.116;5.404;2023-12-20T05:59:18;101500.72;;;6.23;88.41
79453;BME280;68899;52.116;5.404;2023-12-20T06:01:44;101499.81;;;6.24;88.84
79453;BME280;68899;52.116;5.404;2023-12-20T06:04:11;101492.94;;;6.22;88.98
79453;BME280;68899;52.116;5.404;2023-12-20T06:06:44;101496.38;;;6.24;88.48
79453;BME280;68899;52.116;5.404;2023-12-20T06:09:11;101504.19;;;6.24;88.21
79453;BME280;68899;52.116;5.404;2023-12-20T06:11:37;101498.97;;;6.24;88.81
79453;BME280;68899;52.116;5.404;2023-12-20T06:14:04;101498.03;;;6.27;88.44
79453;BME280;68899;52.116;5.404;2023-12-20T06:16:31;101490.16;;;6.28;88.20
79453;BME280;68899;52.116;5.404;2023-12-20T06:19:00;101493.56;;;6.30;88.12
79453;BME280;68899;52.116;5.404;2023-12-20T06:21:27;101490.94;;;6.30;88.22
79453;BME280;68899;52.116;5.404;2023-12-20T06:23:53;101494.41;;;6.31;88.02
79453;BME280;68899;52.116;5.404;2023-12-20T06:26:20;101501.34;;;6.32;88.12
79453;BME280;68899;52.116;5.404;2023-12-20T06:28:47;101489.97;;;6.33;88.00
79453;BME280;68899;52.116;5.404;2023-12-20T06:31:13;101496.06;;;6.33;88.06
79453;BME280;68899;52.116;5.404;2023-12-20T06:33:40;101482.97;;;6.33;88.10
79453;BME280;68899;52.116;5.404;2023-12-20T06:36:13;101495.13;;;6.36;87.46
79453;BME280;68899;52.116;5.404;2023-12-20T06:38:40;101487.22;;;6.37;88.12
79453;BME280;68899;52.116;5.404;2023-12-20T06:41:08;101490.75;;;6.36;88.07
79453;BME280;68899;52.116;5.404;2023-12-20T06:43:34;101481.16;;;6.37;88.03
79453;BME280;68899;52.116;5.404;2023-12-20T06:46:15;101493.31;;;6.38;87.89
79453;BME280;68899;52.116;5.404;2023-12-20T06:48:41;101492.38;;;6.39;87.91
79453;BME280;68899;52.116;5.404;2023-12-20T06:51:12;101484.59;;;6.37;87.76
79453;BME280;68899;52.116;5.404;2023-12-20T06:53:38;101478.47;;;6.38;88.16
79453;BME280;68899;52.116;5.404;2023-12-20T06:56:05;101474.09;;;6.39;88.19
79453;BME280;68899;52.116;5.404;2023-12-20T06:58:32;101477.63;;;6.38;87.77
79453;BME280;68899;52.116;5.404;2023-12-20T07:00:58;101476.72;;;6.39;88.23
79453;BME280;68899;52.116;5.404;2023-12-20T07:03:25;101477.56;;;6.39;87.70
79453;BME280;68899;52.116;5.404;2023-12-20T07:05:51;101476.66;;;6.40;88.01
79453;BME280;68899;52.116;5.404;2023-12-20T07:08:18;101474.03;;;6.40;87.86
79453;BME280;68899;52.116;5.404;2023-12-20T07:10:45;101477.50;;;6.41;87.91
79453;BME280;68899;52.116;5.404;2023-12-20T07:13:12;101478.34;;;6.41;87.90
79453;BME280;68899;52.116;5.404;2023-12-20T07:15:40;101483.56;;;6.43;87.92
79453;BME280;68899;52.116;5.404;2023-12-20T07:18:06;101480.03;;;6.44;88.25
79453;BME280;68899;52.116;5.404;2023-12-20T07:20:33;101468.66;;;6.45;88.13
79453;BME280;68899;52.116;5.404;2023-12-20T07:23:00;101473.91;;;6.45;87.46
79453;BME280;68899;52.116;5.404;2023-12-20T07:25:27;101461.69;;;6.45;88.13
79453;BME280;68899;52.116;5.404;2023-12-20T07:27:54;101465.16;;;6.46;88.20
79453;BME280;68899;52.116;5.404;2023-12-20T07:30:20;101459.91;;;6.46;87.70
79453;BME280;68899;52.116;5.404;2023-12-20T07:32:47;101464.19;;;6.48;88.02
79453;BME280;68899;52.116;5.404;2023-12-20T07:35:15;101478.09;;;6.49;87.88
79453;BME280;68899;52.116;5.404;2023-12-20T07:37:42;101459.75;;;6.50;87.52
79453;BME280;68899;52.116;5.404;2023-12-20T07:40:09;101449.28;;;6.50;87.84
79453;BME280;68899;52.116;5.404;2023-12-20T07:42:38;101453.63;;;6.51;87.74
79453;BME280;68899;52.116;5.404;2023-12-20T07:45:05;101464.03;;;6.53;87.75
79453;BME280;68899;52.116;5.404;2023-12-20T07:47:31;101465.75;;;6.54;88.13
79453;BME280;68899;52.116;5.404;2023-12-20T07:49:58;101474.38;;;6.56;87.93
79453;BME280;68899;52.116;5.404;2023-12-20T07:52:25;101474.38;;;6.56;87.48
79453;BME280;68899;52.116;5.404;2023-12-20T07:54:52;101481.25;;;6.59;87.91
79453;BME280;68899;52.116;5.404;2023-12-20T07:57:19;101480.41;;;6.58;87.79
79453;BME280;68899;52.116;5.404;2023-12-20T07:59:45;101486.47;;;6.59;87.80
79453;BME280;68899;52.116;5.404;2023-12-20T08:02:12;101491.63;;;6.60;87.66
79453;BME280;68899;52.116;5.404;2023-12-20T08:04:41;101498.59;;;6.61;87.76
79453;BME280;68899;52.116;5.404;2023-12-20T08:07:07;101486.38;;;6.62;87.87
79453;BME280;68899;52.116;5.404;2023-12-20T08:09:34;101501.16;;;6.63;87.73
79453;BME280;68899;52.116;5.404;2023-12-20T08:12:03;101500.25;;;6.64;88.02
79453;BME280;68899;52.116;5.404;2023-12-20T08:14:37;101499.34;;;6.65;87.93
79453;BME280;68899;52.116;5.404;2023-12-20T08:17:03;101491.50;;;6.65;87.93
79453;BME280;68899;52.116;5.404;2023-12-20T08:19:30;101501.03;;;6.66;87.66
79453;BME280;68899;52.116;5.404;2023-12-20T08:21:57;101501.03;;;6.66;87.88
79453;BME280;68899;52.116;5.404;2023-12-20T08:24:23;101490.53;;;6.67;87.62
79453;BME280;68899;52.116;5.404;2023-12-20T08:26:50;101491.38;;;6.68;87.87
79453;BME280;68899;52.116;5.404;2023-12-20T08:29:17;101491.38;;;6.68;87.66
79453;BME280;68899;52.116;5.404;2023-12-20T08:31:43;101479.91;;;6.72;87.85
79453;BME280;68899;52.116;5.404;2023-12-20T08:34:10;101485.94;;;6.74;87.89
79453;BME280;68899;52.116;5.404;2023-12-20T08:36:39;101484.25;;;6.73;87.81
79453;BME280;68899;52.116;5.404;2023-12-20T08:39:13;101490.25;;;6.75;88.03
79453;BME280;68899;52.116;5.404;2023-12-20T08:41:39;101481.56;;;6.74;87.68
79453;BME280;68899;52.116;5.404;2023-12-20T08:44:06;101472.03;;;6.73;88.21
79453;BME280;68899;52.116;5.404;2023-12-20T08:46:32;101479.00;;;6.73;87.94
79453;BME280;68899;52.116;5.404;2023-12-20T08:48:59;101484.19;;;6.74;87.93
79453;BME280;68899;52.116;5.404;2023-12-20T08:51:27;101479.81;;;6.75;87.94
79453;BME280;68899;52.116;5.404;2023-12-20T08:53:54;101479.81;;;6.75;88.38
79453;BME280;68899;52.116;5.404;2023-12-20T08:56:21;101475.44;;;6.75;88.67
79453;BME280;68899;52.116;5.404;2023-12-20T08:58:47;101486.78;;;6.74;88.52
79453;BME280;68899;52.116;5.404;2023-12-20T09:01:14;101473.72;;;6.74;88.38
79453;BME280;68899;52.116;5.404;2023-12-20T09:03:41;101478.09;;;6.74;88.92
79453;BME280;68899;52.116;5.404;2023-12-20T09:06:08;101484.25;;;6.73;88.95
79453;BME280;68899;52.116;5.404;2023-12-20T09:08:35;101469.47;;;6.72;89.20
79453;BME280;68899;52.116;5.404;2023-12-20T09:11:01;101476.47;;;6.71;89.25
79453;BME280;68899;52.116;5.404;2023-12-20T09:13:28;101477.31;;;6.72;89.67
79453;BME280;68899;52.116;5.404;2023-12-20T09:15:55;101473.00;;;6.71;89.27
79453;BME280;68899;52.116;5.404;2023-12-20T09:18:22;101474.69;;;6.72;89.51
79453;BME280;68899;52.116;5.404;2023-12-20T09:20:49;101475.53;;;6.72;89.45
79453;BME280;68899;52.116;5.404;2023-12-20T09:23:16;101467.63;;;6.74;89.92
79453;BME280;68899;52.116;5.404;2023-12-20T09:25:44;101466.78;;;6.73;90.10
79453;BME280;68899;52.116;5.404;2023-12-20T09:28:11;101470.13;;;6.77;90.03
79453;BME280;68899;52.116;5.404;2023-12-20T09:30:37;101472.75;;;6.77;89.87
79453;BME280;68899;52.116;5.404;2023-12-20T09:33:07;101469.13;;;6.81;89.56
79453;BME280;68899;52.116;5.404;2023-12-20T09:35:34;101463.78;;;6.84;89.41
79453;BME280;68899;52.116;5.404;2023-12-20T09:38:01;101467.16;;;6.88;89.79
79453;BME280;68899;52.116;5.404;2023-12-20T09:40:28;101464.41;;;6.91;89.59
79453;BME280;68899;52.116;5.404;2023-12-20T09:43:11;101464.34;;;6.92;89.75
79453;BME280;68899;52.116;5.404;2023-12-20T09:45:38;101470.34;;;6.96;89.54
79453;BME280;68899;52.116;5.404;2023-12-20T09:48:10;101473.75;;;6.98;88.83
79453;BME280;68899;52.116;5.404;2023-12-20T09:50:37;101475.47;;;6.99;89.06
79453;BME280;68899;52.116;5.404;2023-12-20T09:53:08;101479.72;;;7.01;88.70
79453;BME280;68899;52.116;5.404;2023-12-20T09:55:36;101477.03;;;7.03;88.77
79453;BME280;68899;52.116;5.404;2023-12-20T09:58:03;101480.28;;;7.09;88.73
79453;BME280;68899;52.116;5.404;2023-12-20T10:00:30;101470.63;;;7.12;88.27
79453;BME280;68899;52.116;5.404;2023-12-20T10:02:57;101470.59;;;7.13;88.57
79453;BME280;68899;52.116;5.404;2023-12-20T10:05:29;101486.09;;;7.18;88.09
79453;BME280;68899;52.116;5.404;2023-12-20T10:07:57;101483.34;;;7.21;87.90
79453;BME280;68899;52.116;5.404;2023-12-20T10:10:24;101487.59;;;7.25;88.04
79453;BME280;68899;52.116;5.404;2023-12-20T10:13:09;101487.44;;;7.28;87.52
79453;BME280;68899;52.116;5.404;2023-12-20T10:15:37;101492.69;;;7.28;87.62
79453;BME280;68899;52.116;5.404;2023-12-20T10:18:04;101490.06;;;7.28;88.07
79453;BME280;68899;52.116;5.404;2023-12-20T10:20:32;101493.53;;;7.28;87.40
79453;BME280;68899;52.116;5.404;2023-12-20T10:22:59;101486.59;;;7.27;87.38
79453;BME280;68899;52.116;5.404;2023-12-20T10:25:27;101487.44;;;7.28;87.91
79453;BME280;68899;52.116;5.404;2023-12-20T10:28:14;101480.34;;;7.31;87.51
79453;BME280;68899;52.116;5.404;2023-12-20T10:30:43;101477.63;;;7.34;86.78
79453;BME280;68899;52.116;5.404;2023-12-20T10:33:10;101477.56;;;7.36;86.86
79453;BME280;68899;52.116;5.404;2023-12-20T10:35:38;101474.88;;;7.37;86.73
79453;BME280;68899;52.116;5.404;2023-12-20T10:38:11;101468.75;;;7.39;87.42
79453;BME280;68899;52.116;5.404;2023-12-20T10:40:38;101463.44;;;7.40;86.86
79453;BME280;68899;52.116;5.404;2023-12-20T10:43:05;101466.72;;;7.45;87.00
79453;BME280;68899;52.116;5.404;2023-12-20T10:45:32;101466.84;;;7.42;86.60
79453;BME280;68899;52.116;5.404;2023-12-20T10:47:59;101467.56;;;7.46;87.00
79453;BME280;68899;52.116;5.404;2023-12-20T10:50:28;101465.78;;;7.48;86.38
79453;BME280;68899;52.116;5.404;2023-12-20T10:52:57;101457.97;;;7.46;86.90
79453;BME280;68899;52.116;5.404;2023-12-20T10:55:24;101464.00;;;7.48;86.49
79453;BME280;68899;52.116;5.404;2023-12-20T10:57:52;101454.38;;;7.49;86.81
79453;BME280;68899;52.116;5.404;2023-12-20T11:00:21;101451.63;;;7.52;86.40
79453;BME280;68899;52.116;5.404;2023-12-20T11:02:49;101451.56;;;7.53;86.04
79453;BME280;68899;52.116;5.404;2023-12-20T11:08:09;101445.25;;;7.59;86.00
79453;BME280;68899;52.116;5.404;2023-12-20T11:13:19;101432.81;;;7.64;85.48
79453;BME280;68899;52.116;5.404;2023-12-20T11:15:47;101429.13;;;7.70;85.61
79453;BME280;68899;52.116;5.404;2023-12-20T11:18:14;101440.38;;;7.72;85.40
79453;BME280;68899;52.116;5.404;2023-12-20T11:20:42;101440.19;;;7.76;85.18
79453;BME280;68899;52.116;5.404;2023-12-20T11:23:09;101444.53;;;7.77;85.14
79453;BME280;68899;52.116;5.404;2023-12-20T11:25:49;101431.44;;;7.77;85.68
79453;BME280;68899;52.116;5.404;2023-12-20T11:28:24;101418.47;;;7.74;85.23
79453;BME280;68899;52.116;5.404;2023-12-20T11:30:57;101416.75;;;7.73;85.56
79453;BME280;68899;52.116;5.404;2023-12-20T11:35:59;101420.50;;;7.88;85.29
79453;BME280;68899;52.116;5.404;2023-12-20T11:38:26;101420.41;;;7.91;85.46
79453;BME280;68899;52.116;5.404;2023-12-20T11:40:54;101418.50;;;7.94;85.39
79453;BME280;68899;52.116;5.404;2023-12-20T11:43:35;101419.34;;;7.95;85.39
79453;BME280;68899;52.116;5.404;2023-12-20T11:46:06;101419.34;;;7.95;84.97
79453;BME280;68899;52.116;5.404;2023-12-20T11:48:39;101403.63;;;7.95;85.24
79453;BME280;68899;52.116;5.404;2023-12-20T11:51:10;101408.88;;;7.95;84.45
79453;BME280;68899;52.116;5.404;2023-12-20T11:53:37;101400.00;;;7.98;84.99
79453;BME280;68899;52.116;5.404;2023-12-20T11:56:07;101403.44;;;8.00;84.83
79453;BME280;68899;52.116;5.404;2023-12-20T11:58:34;101398.22;;;8.00;84.20
79453;BME280;68899;52.116;5.404;2023-12-20T12:01:02;101394.59;;;8.02;85.34
79453;BME280;68899;52.116;5.404;2023-12-20T12:03:34;101391.06;;;8.03;84.98
79453;BME280;68899;52.116;5.404;2023-12-20T12:06:03;101390.19;;;8.03;85.10
79453;BME280;68899;52.116;5.404;2023-12-20T12:08:31;101385.03;;;8.01;84.48
79453;BME280;68899;52.116;5.404;2023-12-20T12:10:58;101398.13;;;8.01;84.60
79453;BME280;68899;52.116;5.404;2023-12-20T12:13:25;101396.44;;;8.00;84.67
79453;BME280;68899;52.116;5.404;2023-12-20T12:15:54;101398.97;;;8.02;84.44
79453;BME280;68899;52.116;5.404;2023-12-20T12:18:20;101406.84;;;8.02;84.98
79453;BME280;68899;52.116;5.404;2023-12-20T12:20:47;101412.94;;;8.02;84.72
79453;BME280;68899;52.116;5.404;2023-12-20T12:23:14;101404.22;;;8.02;84.45
79453;BME280;68899;52.116;5.404;2023-12-20T12:25:41;101398.91;;;8.03;84.40
79453;BME280;68899;52.116;5.404;2023-12-20T12:28:09;101406.63;;;8.06;83.83
79453;BME280;68899;52.116;5.404;2023-12-20T12:30:36;101390.81;;;8.09;84.31
79453;BME280;68899;52.116;5.404;2023-12-20T12:33:11;101384.72;;;8.09;84.40
79453;BME280;68899;52.116;5.404;2023-12-20T12:35:40;101382.94;;;8.09;84.06
79453;BME280;68899;52.116;5.404;2023-12-20T12:38:07;101374.28;;;8.07;84.54
79453;BME280;68899;52.116;5.404;2023-12-20T12:40:34;101373.41;;;8.07;84.14
79453;BME280;68899;52.116;5.404;2023-12-20T12:43:01;101375.13;;;8.08;84.42
79453;BME280;68899;52.116;5.404;2023-12-20T12:45:28;101364.59;;;8.09;83.91
79453;BME280;68899;52.116;5.404;2023-12-20T12:47:55;101364.59;;;8.09;84.20
79453;BME280;68899;52.116;5.404;2023-12-20T12:50:22;101361.97;;;8.09;84.21
79453;BME280;68899;52.116;5.404;2023-12-20T12:52:49;101360.13;;;8.11;84.37
79453;BME280;68899;52.116;5.404;2023-12-20T12:55:15;101359.28;;;8.11;84.78
79453;BME280;68899;52.116;5.404;2023-12-20T12:57:42;101359.22;;;8.12;84.47
79453;BME280;68899;52.116;5.404;2023-12-20T13:00:10;101353.97;;;8.12;85.16
79453;BME280;68899;52.116;5.404;2023-12-20T13:02:37;101353.97;;;8.12;84.62
79453;BME280;68899;52.116;5.404;2023-12-20T13:05:08;101343.56;;;8.11;84.94
79453;BME280;68899;52.116;5.404;2023-12-20T13:07:35;101336.56;;;8.11;84.43
79453;BME280;68899;52.116;5.404;2023-12-20T13:10:04;101339.16;;;8.11;84.67